createdAt,value
2019-03-09T00:00:57.588Z,77.00
2019-03-09T00:03:25.895Z,77.20
2019-03-09T00:05:54.265Z,77.10
2019-03-09T00:08:22.568Z,77.40
2019-03-09T00:10:51.248Z,77.80
2019-03-09T00:13:19.854Z,77.60
2019-03-09T00:15:48.159Z,77.90
2019-03-09T00:18:16.814Z,78.40
2019-03-09T00:20:45.075Z,78.00
2019-03-09T00:23:31.609Z,78.40
2019-03-09T00:26:19.840Z,79.10
2019-03-09T00:29:01.696Z,79.80
2019-03-09T00:31:43.675Z,80.00
2019-03-09T00:34:12.209Z,80.30
2019-03-09T00:36:40.643Z,80.10
2019-03-09T00:39:09.278Z,80.60
2019-03-09T00:41:37.887Z,81.30
2019-03-09T00:44:06.200Z,82.00
2019-03-09T00:46:34.471Z,82.30
2019-03-09T00:49:02.882Z,82.60
2019-03-09T00:51:31.148Z,82.40
2019-03-09T00:53:59.715Z,82.10
2019-03-09T00:56:28.025Z,82.20
2019-03-09T00:58:56.268Z,82.80
2019-03-09T01:01:24.516Z,83.20
2019-03-09T01:03:53.064Z,83.40
2019-03-09T01:06:21.365Z,83.70
2019-03-09T01:08:49.610Z,84.10
2019-03-09T01:11:17.850Z,84.50
2019-03-09T01:13:46.519Z,84.70
2019-03-09T01:16:14.752Z,84.40
2019-03-09T01:18:43.016Z,84.60
2019-03-09T01:21:11.298Z,84.40
2019-03-09T01:23:39.540Z,84.10
2019-03-09T01:26:07.792Z,85.30
2019-03-09T01:28:36.047Z,84.80
2019-03-09T01:31:04.960Z,84.40
2019-03-09T01:33:33.213Z,84.60
2019-03-09T01:36:01.474Z,85.10
2019-03-09T01:38:29.756Z,85.60
2019-03-09T01:40:58.050Z,85.30
2019-03-09T01:43:26.342Z,85.30
2019-03-09T01:45:54.596Z,85.60
2019-03-09T01:48:22.862Z,86.00
2019-03-09T01:50:51.142Z,85.70
2019-03-09T01:53:19.725Z,86.30
2019-03-09T01:55:48.313Z,86.70
2019-03-09T01:58:16.569Z,87.00
2019-03-09T02:00:45.169Z,87.30
2019-03-09T02:03:13.507Z,87.30
2019-03-09T02:05:41.799Z,87.50
2019-03-09T02:08:10.052Z,88.00
2019-03-09T02:10:38.337Z,87.90
2019-03-09T02:13:06.579Z,88.00
2019-03-09T02:15:34.843Z,88.10
2019-03-09T02:18:03.425Z,88.00
2019-03-09T02:20:31.683Z,88.30
2019-03-09T02:23:00.280Z,88.40
2019-03-09T02:25:28.883Z,88.70
2019-03-09T02:27:57.128Z,88.60
2019-03-09T02:30:25.381Z,88.70
2019-03-09T02:32:53.682Z,89.00
2019-03-09T02:35:22.024Z,89.00
2019-03-09T02:37:50.270Z,88.90
2019-03-09T02:40:26.220Z,89.20
2019-03-09T02:42:54.474Z,89.20
2019-03-09T02:45:24.835Z,89.20
2019-03-09T02:47:53.108Z,89.40
2019-03-09T02:50:21.653Z,89.50
2019-03-09T02:52:49.951Z,89.50
2019-03-09T02:55:18.219Z,89.80
2019-03-09T02:57:46.491Z,89.80
2019-03-09T03:00:19.095Z,90.00
2019-03-09T03:02:51.453Z,90.00
2019-03-09T03:05:19.706Z,90.00
2019-03-09T03:07:47.997Z,90.00
2019-03-09T03:10:16.235Z,90.10
2019-03-09T03:12:44.495Z,90.20
2019-03-09T03:15:31.326Z,90.20
2019-03-09T03:17:59.595Z,90.20
2019-03-09T03:20:27.892Z,90.70
2019-03-09T03:22:56.481Z,90.30
2019-03-09T03:25:24.725Z,90.30
2019-03-09T03:27:53.013Z,90.40
2019-03-09T03:30:21.325Z,90.30
2019-03-09T03:32:49.955Z,90.40
2019-03-09T03:35:18.275Z,90.60
2019-03-09T03:37:46.536Z,90.60
2019-03-09T03:40:14.776Z,90.50
2019-03-09T03:42:43.027Z,90.60
2019-03-09T03:45:12.825Z,90.50
2019-03-09T03:47:41.421Z,90.40
2019-03-09T03:50:09.710Z,90.50
2019-03-09T03:52:38.361Z,90.50
2019-03-09T03:55:09.169Z,90.50
2019-03-09T03:57:37.512Z,90.50
2019-03-09T04:00:11.353Z,90.40
2019-03-09T04:02:39.998Z,90.20
2019-03-09T04:05:08.346Z,88.60
2019-03-09T04:07:37.032Z,87.90
2019-03-09T04:10:08.124Z,87.30
2019-03-09T04:12:36.553Z,87.00
2019-03-09T04:15:06.669Z,86.20
2019-03-09T04:17:34.925Z,85.60
2019-03-09T04:20:04.148Z,85.50
2019-03-09T04:22:32.405Z,85.00
2019-03-09T04:25:00.678Z,85.10
2019-03-09T04:27:29.019Z,84.80
2019-03-09T04:29:57.266Z,83.40
2019-03-09T04:32:25.578Z,83.20
2019-03-09T04:34:53.889Z,83.00
2019-03-09T04:37:22.209Z,82.60
2019-03-09T04:39:50.560Z,83.00
2019-03-09T04:42:19.130Z,81.90
2019-03-09T04:44:47.419Z,82.60
2019-03-09T04:47:15.732Z,82.30
2019-03-09T04:49:44.308Z,81.90
2019-03-09T04:52:12.543Z,81.40
2019-03-09T04:54:41.168Z,81.80
2019-03-09T04:57:09.443Z,81.80
2019-03-09T04:59:37.760Z,81.30
2019-03-09T05:02:06.044Z,81.50
2019-03-09T05:04:39.782Z,81.10
2019-03-09T05:07:08.120Z,80.70
2019-03-09T05:09:54.424Z,80.30
2019-03-09T05:12:22.704Z,79.70
2019-03-09T05:14:51.215Z,80.20
2019-03-09T05:17:19.451Z,80.50
2019-03-09T05:19:48.103Z,80.30
2019-03-09T05:22:16.686Z,79.80
2019-03-09T05:24:44.931Z,79.70
2019-03-09T05:27:13.204Z,79.50
2019-03-09T05:29:41.823Z,79.60
2019-03-09T05:32:10.057Z,79.50
2019-03-09T05:34:38.316Z,79.60
2019-03-09T05:37:06.588Z,79.50
2019-03-09T05:39:34.835Z,79.40
2019-03-09T05:42:03.081Z,79.10
2019-03-09T05:44:31.660Z,79.10
2019-03-09T05:46:59.900Z,79.50
2019-03-09T05:49:28.201Z,79.20
2019-03-09T05:52:19.155Z,79.20
2019-03-09T05:54:47.421Z,79.30
2019-03-09T05:57:15.660Z,79.30
2019-03-09T05:59:44.291Z,78.50
2019-03-09T06:02:12.543Z,78.80
2019-03-09T06:04:40.821Z,78.80
2019-03-09T06:07:09.068Z,78.40
2019-03-09T06:09:37.320Z,78.10
2019-03-09T06:12:05.561Z,78.00
2019-03-09T06:14:33.885Z,78.00
2019-03-09T06:17:02.145Z,78.00
2019-03-09T06:19:30.679Z,77.70
2019-03-09T06:21:58.991Z,77.60
2019-03-09T06:24:27.288Z,77.30
2019-03-09T06:26:55.811Z,76.90
2019-03-09T06:29:24.052Z,76.30
2019-03-09T06:32:29.534Z,76.40
2019-03-09T06:34:58.128Z,76.10
2019-03-09T06:37:26.393Z,76.10
2019-03-09T06:39:56.777Z,75.90
2019-03-09T06:42:37.186Z,76.00
2019-03-09T06:45:08.526Z,76.10
2019-03-09T06:47:36.770Z,76.20
2019-03-09T06:50:13.554Z,75.90
2019-03-09T06:52:41.852Z,75.80
2019-03-09T06:55:14.315Z,75.60
2019-03-09T06:57:42.554Z,76.00
2019-03-09T07:00:34.860Z,75.10
2019-03-09T07:03:03.432Z,75.10
2019-03-09T07:05:31.700Z,75.20
2019-03-09T07:08:19.370Z,75.00
2019-03-09T07:10:47.638Z,74.90
2019-03-09T07:13:15.881Z,74.00
2019-03-09T07:15:44.192Z,73.80
2019-03-09T07:18:16.815Z,74.20
2019-03-09T07:20:45.468Z,74.00
2019-03-09T07:23:13.713Z,73.90
2019-03-09T07:25:42.132Z,74.00
2019-03-09T07:28:12.230Z,74.00
2019-03-09T07:30:40.516Z,74.00
2019-03-09T07:33:08.760Z,74.00
2019-03-09T07:35:37.063Z,74.20
2019-03-09T07:38:05.722Z,74.70
2019-03-09T07:40:33.964Z,74.50
2019-03-09T07:43:04.206Z,73.90
2019-03-09T07:45:32.188Z,73.80
2019-03-09T07:48:00.447Z,73.10
2019-03-09T07:50:28.693Z,72.80
2019-03-09T07:52:57.036Z,73.00
2019-03-09T07:55:25.380Z,72.80
2019-03-09T07:58:02.056Z,73.60
2019-03-09T08:00:30.677Z,72.70
2019-03-09T08:02:59.094Z,72.30
2019-03-09T08:05:27.335Z,72.00
2019-03-09T08:07:55.588Z,71.60
2019-03-09T08:10:30.807Z,71.50
2019-03-09T08:12:58.441Z,70.30
2019-03-09T08:15:26.989Z,70.20
2019-03-09T08:17:55.933Z,69.70
2019-03-09T08:20:24.277Z,69.60
2019-03-09T08:22:52.630Z,69.80
2019-03-09T08:25:22.068Z,69.40
2019-03-09T08:27:50.317Z,69.30
2019-03-09T08:30:26.670Z,67.60
2019-03-09T08:32:54.922Z,68.10
2019-03-09T08:35:23.267Z,67.00
2019-03-09T08:37:52.457Z,66.90
2019-03-09T08:40:21.759Z,67.00
2019-03-09T08:42:50.062Z,66.60
2019-03-09T08:45:20.051Z,67.10
2019-03-09T08:47:52.010Z,66.40
2019-03-09T08:50:19.881Z,66.40
2019-03-09T08:52:48.189Z,66.10
2019-03-09T08:55:17.978Z,65.60
2019-03-09T08:57:46.556Z,65.40
2019-03-09T09:00:20.523Z,64.80
2019-03-09T09:02:49.104Z,64.70
2019-03-09T09:05:17.352Z,64.40
2019-03-09T09:07:45.608Z,65.60
2019-03-09T09:10:13.849Z,65.20
2019-03-09T09:12:42.107Z,65.50
2019-03-09T09:15:15.214Z,65.80
2019-03-09T09:17:44.006Z,66.40
2019-03-09T09:20:20.260Z,65.50
2019-03-09T09:22:48.837Z,65.60
2019-03-09T09:25:17.084Z,65.60
2019-03-09T09:27:45.342Z,64.50
2019-03-09T09:30:16.533Z,64.10
2019-03-09T09:32:44.780Z,64.10
2019-03-09T09:35:13.752Z,62.80
2019-03-09T09:37:42.083Z,61.00
2019-03-09T09:40:13.269Z,61.30
2019-03-09T09:42:41.571Z,61.70
2019-03-09T09:45:11.932Z,61.10
2019-03-09T09:47:42.422Z,59.90
2019-03-09T09:50:15.165Z,60.20
2019-03-09T09:52:43.719Z,60.50
2019-03-09T09:55:13.929Z,59.20
2019-03-09T09:57:42.227Z,58.50
2019-03-09T10:00:15.932Z,57.60
2019-03-09T10:02:44.219Z,57.70
2019-03-09T10:05:13.372Z,57.70
2019-03-09T10:07:41.656Z,58.00
2019-03-09T10:10:13.041Z,57.80
2019-03-09T10:12:41.275Z,56.70
2019-03-09T10:15:21.216Z,56.70
2019-03-09T10:17:49.470Z,57.10
2019-03-09T10:20:17.757Z,57.30
2019-03-09T10:22:46.033Z,57.20
2019-03-09T10:25:14.561Z,57.60
2019-03-09T10:27:43.023Z,58.30
2019-03-09T10:30:14.742Z,58.50
2019-03-09T10:32:42.981Z,58.80
2019-03-09T10:35:11.227Z,59.00
2019-03-09T10:37:39.493Z,57.40
2019-03-09T10:40:09.627Z,57.10
2019-03-09T10:42:37.918Z,57.90
2019-03-09T10:45:11.516Z,58.00
2019-03-09T10:47:39.785Z,58.10
2019-03-09T10:50:10.484Z,58.50
2019-03-09T10:52:38.744Z,58.80
2019-03-09T10:55:10.372Z,58.70
2019-03-09T10:57:38.658Z,58.20
2019-03-09T11:00:13.000Z,57.80
2019-03-09T11:02:41.256Z,57.20
2019-03-09T11:05:10.850Z,56.40
2019-03-09T11:07:39.161Z,55.70
2019-03-09T11:10:08.255Z,54.80
2019-03-09T11:12:36.513Z,55.00
2019-03-09T11:15:06.396Z,53.30
2019-03-09T11:17:34.666Z,53.00
2019-03-09T11:20:03.092Z,53.50
2019-03-09T11:22:31.642Z,53.40
2019-03-09T11:25:03.345Z,53.40
2019-03-09T11:27:30.240Z,52.80
2019-03-09T11:29:58.503Z,52.70
2019-03-09T11:32:26.860Z,52.20
2019-03-09T11:34:55.165Z,52.60
2019-03-09T11:37:23.503Z,54.10
2019-03-09T11:39:54.484Z,54.70
2019-03-09T11:42:22.789Z,55.10
2019-03-09T11:44:51.143Z,55.00
2019-03-09T11:47:19.372Z,53.80
2019-03-09T11:49:47.632Z,53.20
2019-03-09T11:52:19.900Z,53.00
2019-03-09T11:54:45.864Z,54.30
2019-03-09T11:57:14.163Z,54.30
2019-03-09T11:59:42.779Z,54.90
2019-03-09T12:02:11.469Z,55.40
2019-03-09T12:04:46.911Z,55.10
2019-03-09T12:07:09.772Z,54.30
2019-03-09T12:09:38.077Z,53.50
2019-03-09T12:12:06.379Z,52.60
2019-03-09T12:14:34.645Z,51.30
2019-03-09T12:17:02.960Z,50.30
2019-03-09T12:19:31.334Z,50.20
2019-03-09T12:21:59.909Z,50.10
2019-03-09T12:24:28.492Z,49.80
2019-03-09T12:26:56.741Z,50.00
2019-03-09T12:29:25.016Z,49.90
2019-03-09T12:31:53.314Z,50.30
2019-03-09T12:34:21.620Z,50.80
2019-03-09T12:36:49.902Z,51.60
2019-03-09T12:39:18.199Z,51.80
2019-03-09T12:41:46.832Z,51.70
2019-03-09T12:44:15.112Z,52.30
2019-03-09T12:46:43.364Z,53.20
2019-03-09T12:49:11.664Z,53.60
2019-03-09T12:51:39.959Z,54.70
2019-03-09T12:54:08.528Z,56.70
2019-03-09T12:56:36.794Z,60.10
2019-03-09T12:59:05.392Z,61.50
2019-03-09T13:01:33.972Z,62.80
2019-03-09T13:04:02.233Z,60.20
2019-03-09T13:06:30.532Z,60.20
2019-03-09T13:08:59.137Z,59.70
2019-03-09T13:11:27.447Z,59.40
2019-03-09T13:13:55.700Z,59.80
2019-03-09T13:16:24.241Z,60.10
2019-03-09T13:18:52.524Z,59.70
2019-03-09T13:21:20.776Z,59.40
2019-03-09T13:23:49.040Z,59.40
2019-03-09T13:26:17.284Z,58.60
2019-03-09T13:28:45.544Z,57.70
2019-03-09T13:31:13.811Z,58.50
2019-03-09T13:33:42.420Z,59.80
2019-03-09T13:36:10.684Z,61.70
2019-03-09T13:38:39.241Z,62.50
2019-03-09T13:41:07.483Z,62.10
2019-03-09T13:43:35.744Z,62.60
2019-03-09T13:46:04.044Z,62.50
2019-03-09T13:48:32.352Z,63.20
2019-03-09T13:51:00.609Z,63.00
2019-03-09T13:53:28.856Z,63.60
2019-03-09T13:55:57.112Z,65.40
2019-03-09T13:58:25.364Z,67.70
2019-03-09T14:00:53.631Z,69.30
2019-03-09T14:03:21.928Z,73.40
2019-03-09T14:05:50.165Z,76.10
2019-03-09T14:08:18.426Z,77.20
2019-03-09T14:10:46.656Z,77.80
2019-03-09T14:13:14.908Z,78.30
2019-03-09T14:15:43.151Z,78.00
2019-03-09T14:18:11.459Z,78.60
2019-03-09T14:20:39.830Z,77.90
2019-03-09T14:23:08.160Z,77.50
2019-03-09T14:25:36.456Z,77.50
2019-03-09T14:28:04.733Z,78.00
2019-03-09T14:30:33.074Z,78.30
2019-03-09T14:33:01.370Z,78.80
2019-03-09T14:35:29.602Z,79.80
2019-03-09T14:37:57.884Z,80.90
2019-03-09T14:40:26.152Z,79.90
2019-03-09T14:42:54.384Z,80.80
2019-03-09T14:45:23.755Z,80.50
2019-03-09T14:47:52.028Z,79.80
2019-03-09T14:50:20.261Z,79.30
2019-03-09T14:52:48.700Z,79.10
2019-03-09T14:55:17.248Z,78.30
2019-03-09T14:57:45.539Z,78.40
2019-03-09T15:00:28.137Z,78.00
2019-03-09T15:02:56.388Z,78.20
2019-03-09T15:05:24.694Z,78.50
2019-03-09T15:07:53.032Z,78.40
2019-03-09T15:10:21.568Z,78.20
2019-03-09T15:12:49.844Z,78.10
2019-03-09T15:15:19.640Z,77.60
2019-03-09T15:17:48.236Z,78.30
2019-03-09T15:20:16.955Z,79.10
2019-03-09T15:22:45.251Z,79.80
2019-03-09T15:25:19.117Z,80.00
2019-03-09T15:27:47.365Z,79.80
2019-03-09T15:30:19.968Z,79.70
2019-03-09T15:32:48.290Z,80.30
2019-03-09T15:35:17.272Z,80.20
2019-03-09T15:37:45.920Z,79.80
2019-03-09T15:40:17.223Z,79.40
2019-03-09T15:42:45.888Z,79.00
2019-03-09T15:45:17.810Z,78.40
2019-03-09T15:47:46.123Z,77.30
2019-03-09T15:50:22.698Z,78.10
2019-03-09T15:52:52.596Z,76.50
2019-03-09T15:55:21.020Z,77.90
2019-03-09T15:57:49.356Z,79.00
2019-03-09T16:00:24.401Z,78.30
2019-03-09T16:02:52.852Z,75.40
2019-03-09T16:05:21.416Z,71.80
2019-03-09T16:07:50.004Z,72.10
2019-03-09T16:13:47.668Z,73.40
2019-03-09T16:16:15.972Z,74.70
2019-03-09T16:18:44.209Z,75.70
2019-03-09T16:21:12.460Z,74.30
2019-03-09T16:23:40.736Z,74.80
2019-03-09T16:26:09.412Z,74.10
2019-03-09T16:28:37.660Z,74.80
2019-03-09T16:31:05.899Z,74.90
2019-03-09T16:33:34.141Z,74.90
2019-03-09T16:36:02.415Z,75.40
2019-03-09T16:38:30.809Z,76.40
2019-03-09T16:40:59.081Z,76.00
2019-03-09T16:43:27.369Z,76.70
2019-03-09T16:45:55.618Z,77.40
2019-03-09T16:48:23.905Z,77.50
2019-03-09T16:50:52.149Z,77.90
2019-03-09T16:53:20.745Z,78.30
2019-03-09T16:55:48.986Z,78.10
2019-03-09T16:58:17.587Z,77.70
2019-03-09T17:00:45.872Z,78.30
2019-03-09T17:03:14.138Z,77.70
2019-03-09T17:05:42.429Z,77.70
2019-03-09T17:08:11.129Z,77.80
2019-03-09T17:10:39.379Z,77.90
2019-03-09T17:13:07.624Z,78.00
2019-03-09T17:15:35.868Z,77.80
2019-03-09T17:18:04.116Z,78.10
2019-03-09T17:20:32.356Z,78.00
2019-03-09T17:23:00.608Z,78.10
2019-03-09T17:25:28.950Z,78.80
2019-03-09T17:27:58.457Z,78.00
2019-03-09T17:30:26.700Z,77.70
2019-03-09T17:32:54.941Z,77.50
2019-03-09T17:35:23.487Z,77.40
2019-03-09T17:37:51.708Z,77.20
2019-03-09T17:40:19.947Z,76.70
2019-03-09T17:42:48.529Z,76.10
2019-03-09T17:45:22.129Z,75.30
2019-03-09T17:47:50.481Z,75.70
2019-03-09T17:50:18.708Z,76.60
2019-03-09T17:52:46.964Z,76.70
2019-03-09T17:55:15.251Z,76.00
2019-03-09T17:57:43.494Z,75.60
2019-03-09T18:00:18.560Z,75.80
2019-03-09T18:02:46.796Z,75.90
2019-03-09T18:05:15.076Z,76.10
2019-03-09T18:07:43.666Z,76.20
2019-03-09T18:10:27.545Z,75.50
2019-03-09T18:12:55.921Z,75.30
2019-03-09T18:15:24.209Z,75.60
2019-03-09T18:17:52.509Z,76.00
2019-03-09T18:20:20.802Z,76.20
2019-03-09T18:22:49.032Z,76.00
2019-03-09T18:25:17.288Z,77.00
2019-03-09T18:27:45.560Z,76.30
2019-03-09T18:30:13.807Z,76.50
2019-03-09T18:32:42.048Z,76.10
2019-03-09T18:35:11.268Z,76.20
2019-03-09T18:37:39.512Z,76.20
2019-03-09T18:40:13.245Z,75.70
2019-03-09T18:42:41.515Z,75.60
2019-03-09T18:45:17.943Z,75.90
2019-03-09T18:47:46.194Z,75.90
2019-03-09T18:50:14.431Z,76.10
2019-03-09T18:52:43.102Z,76.20
2019-03-09T18:55:11.410Z,76.40
2019-03-09T18:57:40.039Z,76.40
2019-03-09T19:00:14.767Z,76.20
2019-03-09T19:02:43.021Z,75.60
2019-03-09T19:05:11.305Z,76.00
2019-03-09T19:07:39.541Z,75.90
2019-03-09T19:10:15.928Z,75.80
2019-03-09T19:12:44.549Z,76.10
2019-03-09T19:15:17.028Z,76.20
2019-03-09T19:17:45.413Z,76.30
2019-03-09T19:20:18.630Z,75.80
2019-03-09T19:22:46.946Z,76.40
2019-03-09T19:25:15.843Z,76.70
2019-03-09T19:27:44.084Z,77.20
2019-03-09T19:30:22.484Z,77.10
2019-03-09T19:32:59.810Z,77.30
2019-03-09T19:35:20.805Z,77.80
2019-03-09T19:37:49.091Z,78.00
2019-03-09T19:40:21.394Z,78.10
2019-03-09T19:42:49.688Z,78.10
2019-03-09T19:45:19.346Z,78.10
2019-03-09T19:47:47.579Z,78.20
2019-03-09T19:50:20.247Z,77.90
2019-03-09T19:52:48.792Z,77.80
2019-03-09T19:55:17.040Z,78.40
2019-03-09T19:57:45.337Z,78.40
2019-03-09T20:00:19.873Z,78.20
2019-03-09T20:02:48.106Z,78.00
2019-03-09T20:05:16.735Z,78.00
2019-03-09T20:07:44.997Z,77.70
2019-03-09T20:10:19.637Z,78.00
2019-03-09T20:12:47.896Z,78.50
2019-03-09T20:15:17.351Z,78.50
2019-03-09T20:17:46.090Z,78.60
2019-03-09T20:20:16.569Z,78.60
2019-03-09T20:22:44.938Z,78.60
2019-03-09T20:25:13.188Z,78.90
2019-03-09T20:27:41.773Z,78.60
2019-03-09T20:30:12.717Z,78.80
2019-03-09T20:32:40.969Z,78.90
2019-03-09T20:35:09.564Z,78.90
2019-03-09T20:37:37.824Z,78.70
2019-03-09T20:40:08.904Z,78.80
2019-03-09T20:42:37.258Z,78.70
2019-03-09T20:45:08.792Z,78.60
2019-03-09T20:47:37.287Z,79.00
2019-03-09T20:50:11.120Z,79.50
2019-03-09T20:52:39.366Z,79.10
2019-03-09T20:55:08.599Z,79.30
2019-03-09T20:57:36.907Z,79.90
2019-03-09T21:00:13.731Z,79.10
2019-03-09T21:02:42.057Z,78.90
2019-03-09T21:05:10.306Z,78.80
2019-03-09T21:07:38.553Z,79.30
2019-03-09T21:10:13.178Z,79.80
2019-03-09T21:13:04.547Z,80.20
2019-03-09T21:15:32.795Z,80.40
2019-03-09T21:18:01.039Z,80.10
2019-03-09T21:20:29.339Z,80.00
2019-03-09T21:22:57.658Z,79.80
2019-03-09T21:25:26.192Z,79.50
2019-03-09T21:27:54.448Z,79.70
2019-03-09T21:30:22.706Z,79.80
2019-03-09T21:32:50.951Z,80.20
2019-03-09T21:35:19.218Z,80.30
2019-03-09T21:37:47.519Z,80.20
2019-03-09T21:40:16.079Z,80.40
2019-03-09T21:42:44.321Z,81.00
2019-03-09T21:45:14.471Z,81.10
2019-03-09T21:47:42.779Z,81.10
2019-03-09T21:50:12.760Z,81.40
2019-03-09T21:52:40.996Z,81.60
2019-03-09T21:55:12.269Z,81.90
2019-03-09T21:57:40.848Z,81.90
2019-03-09T22:00:20.396Z,81.90
2019-03-09T22:02:50.391Z,82.10
2019-03-09T22:05:19.017Z,81.90
2019-03-09T22:07:47.256Z,82.30
2019-03-09T22:10:15.543Z,82.20
2019-03-09T22:12:43.783Z,82.10
2019-03-09T22:15:17.337Z,82.60
2019-03-09T22:17:45.576Z,82.60
2019-03-09T22:20:14.311Z,82.30
2019-03-09T22:22:42.911Z,82.10
2019-03-09T22:25:12.447Z,82.70
2019-03-09T22:27:41.098Z,82.60
2019-03-09T22:30:15.617Z,82.50
2019-03-09T22:32:44.114Z,82.00
2019-03-09T22:35:12.887Z,82.30
2019-03-09T22:37:41.132Z,82.50
2019-03-09T22:40:12.185Z,82.60
2019-03-09T22:42:40.756Z,82.30
2019-03-09T22:45:13.669Z,82.60
2019-03-09T22:47:41.921Z,82.40
2019-03-09T22:50:21.565Z,82.20
2019-03-09T22:52:49.816Z,81.90
2019-03-09T22:55:18.068Z,82.00
2019-03-09T22:57:46.376Z,82.30
2019-03-09T23:00:24.701Z,82.10
2019-03-09T23:02:52.963Z,82.00
2019-03-09T23:05:21.280Z,81.60
2019-03-09T23:07:49.516Z,81.50
2019-03-09T23:10:19.269Z,81.50
2019-03-09T23:12:47.584Z,82.20
2019-03-09T23:15:16.906Z,82.30
2019-03-09T23:17:45.377Z,82.30
2019-03-09T23:20:15.079Z,81.80
2019-03-09T23:22:43.348Z,81.50
2019-03-09T23:25:12.250Z,81.40
2019-03-09T23:27:41.096Z,81.30
2019-03-09T23:30:20.208Z,81.50
2019-03-09T23:32:48.515Z,81.20
2019-03-09T23:35:17.162Z,80.80
2019-03-09T23:37:46.640Z,80.90
2019-03-09T23:40:17.637Z,80.50
2019-03-09T23:42:45.881Z,80.40
2019-03-09T23:45:16.378Z,80.40
2019-03-09T23:47:44.620Z,80.30
2019-03-09T23:50:14.629Z,79.80
2019-03-09T23:52:42.864Z,79.90
2019-03-09T23:55:21.464Z,79.40
2019-03-09T23:57:41.340Z,79.50
